createdAt,value
2018-12-07T00:00:11.250Z,53.40
2018-12-07T00:02:40.454Z,53.40
2018-12-07T00:05:09.683Z,53.40
2018-12-07T00:07:38.975Z,53.40
2018-12-07T00:10:08.179Z,53.40
2018-12-07T00:12:37.416Z,53.40
2018-12-07T00:15:08.000Z,53.30
2018-12-07T00:17:37.283Z,53.50
2018-12-07T00:20:08.320Z,53.30
2018-12-07T00:22:37.510Z,53.50
2018-12-07T00:25:07.327Z,53.60
2018-12-07T00:27:36.558Z,53.40
2018-12-07T00:30:05.823Z,53.40
2018-12-07T00:32:35.301Z,53.30
2018-12-07T00:35:04.599Z,53.30
2018-12-07T00:37:34.380Z,53.20
2018-12-07T00:40:03.539Z,53.40
2018-12-07T00:42:32.704Z,53.30
2018-12-07T00:45:01.886Z,53.20
2018-12-07T00:47:31.133Z,53.20
2018-12-07T00:50:00.318Z,53.30
2018-12-07T00:52:29.567Z,53.60
2018-12-07T00:54:58.724Z,53.50
2018-12-07T00:57:27.927Z,53.30
2018-12-07T00:59:57.108Z,53.50
2018-12-07T01:02:26.320Z,53.60
2018-12-07T01:04:55.526Z,53.50
2018-12-07T01:07:24.982Z,53.40
2018-12-07T01:09:54.189Z,53.50
2018-12-07T01:12:23.417Z,53.40
2018-12-07T01:14:52.588Z,53.50
2018-12-07T01:17:21.821Z,54.00
2018-12-07T01:19:50.986Z,53.30
2018-12-07T01:22:20.179Z,53.90
2018-12-07T01:24:49.452Z,53.30
2018-12-07T01:27:18.662Z,53.10
2018-12-07T01:29:47.844Z,53.20
2018-12-07T01:32:17.073Z,53.50
2018-12-07T01:34:46.287Z,53.30
2018-12-07T01:37:15.561Z,53.70
2018-12-07T01:39:44.742Z,53.70
2018-12-07T01:42:14.024Z,53.50
2018-12-07T01:44:43.195Z,53.10
2018-12-07T01:47:12.419Z,53.60
2018-12-07T01:49:41.596Z,53.60
2018-12-07T01:52:10.758Z,53.30
2018-12-07T01:54:39.961Z,53.30
2018-12-07T01:57:09.395Z,53.30
2018-12-07T01:59:38.594Z,53.30
2018-12-07T02:02:07.755Z,53.20
2018-12-07T02:04:36.985Z,53.30
2018-12-07T02:07:15.846Z,53.10
2018-12-07T02:09:45.351Z,53.90
2018-12-07T02:12:14.588Z,53.00
2018-12-07T02:14:43.819Z,53.10
2018-12-07T02:17:13.011Z,53.30
2018-12-07T02:19:42.323Z,53.10
2018-12-07T02:22:11.506Z,53.30
2018-12-07T02:24:40.679Z,53.10
2018-12-07T02:27:10.140Z,53.10
2018-12-07T02:29:39.348Z,52.90
2018-12-07T02:32:08.549Z,52.90
2018-12-07T02:34:37.746Z,52.80
2018-12-07T02:37:17.048Z,53.00
2018-12-07T02:39:46.312Z,52.90
2018-12-07T02:42:15.559Z,52.80
2018-12-07T02:44:44.740Z,52.70
2018-12-07T02:47:14.010Z,52.60
2018-12-07T02:49:43.206Z,52.80
2018-12-07T02:52:12.374Z,52.60
2018-12-07T02:54:41.657Z,52.70
2018-12-07T02:57:10.948Z,52.60
2018-12-07T02:59:40.221Z,52.60
2018-12-07T03:02:09.401Z,52.80
2018-12-07T03:04:38.632Z,52.60
2018-12-07T03:07:07.822Z,52.60
2018-12-07T03:09:43.479Z,52.60
2018-12-07T03:12:12.686Z,52.60
2018-12-07T03:14:41.950Z,52.50
2018-12-07T03:17:11.207Z,52.60
2018-12-07T03:19:40.393Z,52.60
2018-12-07T03:22:09.563Z,52.60
2018-12-07T03:24:38.776Z,52.60
2018-12-07T03:27:08.006Z,52.60
2018-12-07T03:29:37.231Z,52.60
2018-12-07T03:32:06.536Z,52.50
2018-12-07T03:34:35.737Z,52.50
2018-12-07T03:37:05.018Z,52.50
2018-12-07T03:39:34.192Z,52.60
2018-12-07T03:42:03.357Z,52.50
2018-12-07T03:44:32.564Z,52.60
2018-12-07T03:47:01.968Z,52.60
2018-12-07T03:49:31.333Z,52.60
2018-12-07T03:52:00.515Z,52.50
2018-12-07T03:54:29.693Z,52.50
2018-12-07T03:56:58.951Z,52.60
2018-12-07T03:59:28.143Z,52.60
2018-12-07T04:01:57.371Z,52.50
2018-12-07T04:04:26.608Z,52.50
2018-12-07T04:06:55.858Z,52.50
2018-12-07T04:09:25.043Z,52.50
2018-12-07T04:11:54.228Z,52.50
2018-12-07T04:14:23.442Z,52.60
2018-12-07T04:16:52.636Z,52.50
2018-12-07T04:19:21.880Z,52.00
2018-12-07T04:21:51.072Z,52.60
2018-12-07T04:24:20.227Z,52.60
2018-12-07T04:26:49.399Z,52.50
2018-12-07T04:29:18.631Z,53.00
2018-12-07T04:31:47.797Z,52.40
2018-12-07T04:34:17.026Z,52.50
2018-12-07T04:36:46.227Z,52.40
2018-12-07T04:39:15.444Z,52.40
2018-12-07T04:41:44.626Z,52.40
2018-12-07T04:44:13.812Z,52.40
2018-12-07T04:46:43.053Z,53.00
2018-12-07T04:49:12.340Z,52.40
2018-12-07T04:51:41.556Z,52.40
2018-12-07T04:54:10.711Z,52.40
2018-12-07T04:56:39.910Z,52.40
2018-12-07T04:59:09.117Z,52.40
2018-12-07T05:01:38.312Z,52.90
2018-12-07T05:04:07.528Z,52.60
2018-12-07T05:06:37.149Z,52.50
2018-12-07T05:09:07.733Z,52.40
2018-12-07T05:11:36.911Z,52.40
2018-12-07T05:14:06.097Z,52.40
2018-12-07T05:16:35.305Z,52.40
2018-12-07T05:19:04.533Z,52.30
2018-12-07T05:21:33.740Z,52.40
2018-12-07T05:24:03.008Z,52.40
2018-12-07T05:26:32.195Z,52.50
2018-12-07T05:29:01.370Z,52.30
2018-12-07T05:31:30.531Z,52.30
2018-12-07T05:33:59.720Z,52.30
2018-12-07T05:36:28.892Z,52.30
2018-12-07T05:38:58.221Z,52.40
2018-12-07T05:41:27.395Z,52.50
2018-12-07T05:43:57.973Z,52.30
2018-12-07T05:46:27.307Z,52.30
2018-12-07T05:48:56.548Z,52.30
2018-12-07T05:51:25.816Z,52.60
2018-12-07T05:53:55.044Z,52.40
2018-12-07T05:56:24.270Z,52.40
2018-12-07T05:58:53.562Z,52.60
2018-12-07T06:01:22.809Z,52.50
2018-12-07T06:03:51.968Z,52.60
2018-12-07T06:06:21.181Z,52.30
2018-12-07T06:08:50.452Z,52.60
2018-12-07T06:11:19.701Z,52.70
2018-12-07T06:13:48.964Z,52.50
2018-12-07T06:16:18.163Z,52.80
2018-12-07T06:18:47.540Z,52.90
2018-12-07T06:21:16.736Z,53.10
2018-12-07T06:23:45.975Z,53.70
2018-12-07T06:26:15.583Z,54.30
2018-12-07T06:28:45.076Z,54.70
2018-12-07T06:31:14.384Z,54.60
2018-12-07T06:33:43.652Z,54.80
2018-12-07T06:36:12.956Z,54.90
2018-12-07T06:38:42.260Z,54.90
2018-12-07T06:41:11.544Z,54.30
2018-12-07T06:43:40.844Z,54.00
2018-12-07T06:46:10.107Z,54.00
2018-12-07T06:48:39.425Z,54.00
2018-12-07T06:51:08.620Z,53.90
2018-12-07T06:53:37.916Z,53.80
2018-12-07T06:56:07.187Z,53.80
2018-12-07T06:58:36.520Z,54.00
2018-12-07T07:01:05.826Z,53.80
2018-12-07T07:03:35.108Z,53.80
2018-12-07T07:06:04.388Z,53.50
2018-12-07T07:08:33.677Z,53.60
2018-12-07T07:11:02.906Z,53.60
2018-12-07T07:13:32.168Z,53.50
2018-12-07T07:16:01.864Z,53.50
2018-12-07T07:18:31.132Z,53.70
2018-12-07T07:21:00.448Z,54.10
2018-12-07T07:23:29.677Z,53.40
2018-12-07T07:25:58.964Z,53.30
2018-12-07T07:28:28.246Z,53.50
2018-12-07T07:30:57.685Z,53.60
2018-12-07T07:33:39.410Z,53.50
2018-12-07T07:36:17.672Z,53.40
2018-12-07T07:38:51.274Z,53.40
2018-12-07T07:41:39.904Z,53.30
2018-12-07T07:44:14.277Z,53.30
2018-12-07T07:46:55.685Z,53.40
2018-12-07T07:49:34.723Z,53.40
2018-12-07T07:52:03.989Z,53.60
2018-12-07T07:54:33.212Z,53.70
2018-12-07T07:57:05.813Z,53.70
2018-12-07T07:59:35.120Z,53.80
2018-12-07T08:02:04.396Z,53.80
2018-12-07T08:04:33.855Z,54.30
2018-12-07T08:07:03.228Z,53.70
2018-12-07T08:09:32.512Z,53.80
2018-12-07T08:12:01.770Z,53.80
2018-12-07T08:14:31.113Z,53.80
2018-12-07T08:17:00.524Z,54.00
2018-12-07T08:19:29.793Z,53.90
2018-12-07T08:21:59.095Z,54.00
2018-12-07T08:24:41.155Z,54.30
2018-12-07T08:27:10.482Z,54.70
2018-12-07T08:29:39.774Z,54.70
2018-12-07T08:32:08.971Z,55.10
2018-12-07T08:34:38.241Z,55.10
2018-12-07T08:37:07.505Z,55.00
2018-12-07T08:39:36.740Z,55.60
2018-12-07T08:42:06.958Z,55.10
2018-12-07T08:44:36.396Z,55.20
2018-12-07T08:47:05.818Z,55.10
2018-12-07T08:49:41.156Z,55.10
2018-12-07T08:52:10.541Z,55.20
2018-12-07T08:54:39.895Z,54.90
2018-12-07T08:57:09.247Z,54.10
2018-12-07T08:59:38.624Z,53.80
2018-12-07T09:02:07.927Z,53.70
2018-12-07T09:04:37.279Z,53.70
2018-12-07T09:07:06.640Z,53.80
2018-12-07T09:09:36.016Z,53.80
2018-12-07T09:12:05.317Z,53.80
2018-12-07T09:14:34.631Z,53.90
2018-12-07T09:17:04.265Z,53.90
2018-12-07T09:19:33.985Z,53.90
2018-12-07T09:22:03.451Z,53.90
2018-12-07T09:24:32.649Z,54.00
2018-12-07T09:27:01.976Z,53.90
2018-12-07T09:29:33.689Z,54.00
2018-12-07T09:32:03.049Z,53.80
2018-12-07T09:34:33.087Z,54.20
2018-12-07T09:37:03.243Z,53.70
2018-12-07T09:39:32.517Z,53.60
2018-12-07T09:42:01.781Z,53.60
2018-12-07T09:44:31.070Z,53.50
2018-12-07T09:47:00.441Z,53.40
2018-12-07T09:49:29.885Z,53.30
2018-12-07T09:51:59.180Z,53.90
2018-12-07T09:54:28.431Z,53.20
2018-12-07T09:56:57.678Z,53.20
2018-12-07T09:59:27.642Z,53.20
2018-12-07T10:01:56.868Z,53.30
2018-12-07T10:04:27.357Z,53.20
2018-12-07T10:06:56.591Z,53.20
2018-12-07T10:09:26.812Z,53.10
2018-12-07T10:11:56.091Z,53.20
2018-12-07T10:14:26.399Z,53.10
2018-12-07T10:16:55.612Z,53.00
2018-12-07T10:19:24.799Z,52.90
2018-12-07T10:21:54.689Z,52.90
2018-12-07T10:24:24.030Z,53.10
2018-12-07T10:26:53.310Z,53.10
2018-12-07T10:29:22.525Z,53.10
2018-12-07T10:31:51.805Z,53.10
2018-12-07T10:34:21.025Z,53.60
2018-12-07T10:36:50.236Z,53.00
2018-12-07T10:39:19.471Z,53.00
2018-12-07T10:41:48.689Z,53.00
2018-12-07T10:44:17.937Z,53.00
2018-12-07T10:46:47.237Z,52.90
2018-12-07T10:49:16.431Z,52.90
2018-12-07T10:51:45.718Z,52.90
2018-12-07T10:54:14.930Z,53.40
2018-12-07T10:56:44.211Z,52.80
2018-12-07T10:59:13.469Z,52.80
2018-12-07T11:01:47.663Z,52.80
2018-12-07T11:04:21.931Z,52.90
2018-12-07T11:06:55.252Z,52.80
2018-12-07T11:09:29.503Z,52.90
2018-12-07T11:12:04.055Z,53.30
2018-12-07T11:14:38.385Z,52.90
2018-12-07T11:17:13.694Z,53.00
2018-12-07T11:19:47.967Z,53.00
2018-12-07T11:22:22.450Z,52.80
2018-12-07T11:24:56.818Z,52.80
2018-12-07T11:27:31.398Z,52.90
2018-12-07T11:30:06.701Z,52.90
2018-12-07T11:32:42.935Z,52.80
2018-12-07T11:35:17.575Z,52.50
2018-12-07T11:37:48.989Z,52.50
2018-12-07T11:40:18.323Z,52.90
2018-12-07T11:42:47.604Z,53.00
2018-12-07T11:45:17.521Z,53.10
2018-12-07T11:47:46.930Z,53.10
2018-12-07T12:04:06.473Z,53.20
2018-12-07T12:06:35.994Z,53.30
2018-12-07T12:09:07.556Z,53.20
2018-12-07T12:11:37.067Z,53.20
2018-12-07T12:14:06.424Z,53.50
2018-12-07T12:16:35.832Z,53.30
2018-12-07T12:19:05.262Z,53.20
2018-12-07T12:21:35.688Z,53.20
2018-12-07T12:24:04.955Z,53.60
2018-12-07T12:26:43.477Z,53.20
2018-12-07T12:29:13.931Z,53.30
2018-12-07T12:31:43.387Z,53.20
2018-12-07T12:34:12.705Z,53.10
2018-12-07T12:36:41.947Z,53.10
2018-12-07T12:39:11.375Z,53.00
2018-12-07T12:41:46.763Z,53.10
2018-12-07T12:44:11.995Z,53.00
2018-12-07T12:46:41.356Z,53.00
2018-12-07T13:02:33.531Z,53.00
2018-12-07T13:05:02.824Z,53.00
2018-12-07T13:07:32.211Z,53.60
2018-12-07T13:10:01.506Z,53.00
2018-12-07T13:12:30.765Z,52.90
2018-12-07T13:14:59.977Z,53.00
2018-12-07T13:17:29.391Z,53.00
2018-12-07T13:19:59.506Z,52.90
2018-12-07T13:48:28.260Z,53.10
2018-12-07T13:50:59.287Z,53.30
2018-12-07T13:53:29.401Z,53.40
2018-12-07T13:55:58.845Z,53.10
2018-12-07T13:58:28.469Z,53.60
2018-12-07T14:00:57.921Z,53.80
2018-12-07T14:03:27.393Z,53.80
2018-12-07T14:05:56.852Z,53.80
2018-12-07T14:08:27.481Z,54.00
2018-12-07T14:10:56.888Z,54.00
2018-12-07T14:13:26.269Z,54.00
2018-12-07T14:15:55.930Z,54.00
2018-12-07T14:18:25.471Z,53.90
2018-12-07T14:20:55.054Z,53.80
2018-12-07T14:23:24.327Z,53.90
2018-12-07T14:25:53.631Z,53.80
2018-12-07T14:28:23.043Z,53.70
2018-12-07T14:30:52.590Z,53.70
2018-12-07T14:33:21.981Z,54.40
2018-12-07T14:35:51.320Z,53.70
2018-12-07T14:38:21.016Z,53.30
2018-12-07T14:40:50.397Z,53.70
2018-12-07T14:43:19.766Z,53.70
2018-12-07T14:45:49.165Z,53.70
2018-12-07T14:48:18.555Z,53.70
2018-12-07T14:50:48.237Z,53.70
2018-12-07T14:53:17.726Z,53.70
2018-12-07T14:55:47.164Z,53.70
2018-12-07T14:58:16.530Z,53.60
2018-12-07T15:00:49.929Z,53.90
2018-12-07T15:03:19.351Z,53.90
2018-12-07T15:05:48.861Z,53.80
2018-12-07T15:08:18.285Z,53.80
2018-12-07T15:10:47.779Z,53.90
2018-12-07T15:13:17.261Z,53.90
2018-12-07T15:15:46.653Z,53.90
2018-12-07T15:18:16.046Z,54.20
2018-12-07T15:20:45.422Z,53.90
2018-12-07T15:23:14.798Z,54.00
2018-12-07T15:25:44.231Z,54.00
2018-12-07T15:28:13.802Z,54.00
2018-12-07T15:30:43.187Z,54.00
2018-12-07T15:33:12.509Z,54.00
2018-12-07T15:35:41.890Z,54.10
2018-12-07T15:38:11.508Z,54.20
2018-12-07T15:40:40.894Z,54.10
2018-12-07T15:43:10.439Z,54.10
2018-12-07T15:45:39.929Z,54.10
2018-12-07T15:48:09.426Z,54.70
2018-12-07T15:50:49.076Z,54.00
2018-12-07T15:53:18.476Z,54.00
2018-12-07T15:55:47.735Z,54.10
2018-12-07T15:58:17.282Z,54.00
2018-12-07T16:00:46.600Z,54.00
2018-12-07T16:03:15.964Z,53.90
2018-12-07T16:05:45.598Z,54.00
2018-12-07T16:08:15.303Z,54.00
2018-12-07T16:10:49.035Z,53.90
2018-12-07T16:13:16.100Z,54.60
2018-12-07T16:15:45.711Z,53.90
2018-12-07T16:18:15.248Z,54.00
2018-12-07T16:20:44.638Z,54.00
2018-12-07T16:23:14.012Z,54.00
2018-12-07T16:25:43.325Z,53.90
2018-12-07T16:28:12.826Z,54.60
2018-12-07T16:30:42.385Z,54.00
2018-12-07T16:33:12.156Z,54.20
2018-12-07T16:35:41.653Z,53.90
2018-12-07T16:38:10.978Z,54.50
2018-12-07T16:40:40.484Z,54.50
2018-12-07T16:43:09.705Z,53.90
2018-12-07T16:45:39.136Z,53.90
2018-12-07T16:48:08.682Z,53.80
2018-12-07T16:50:38.239Z,53.80
2018-12-07T16:53:07.589Z,53.80
2018-12-07T16:55:37.066Z,53.60
2018-12-07T16:58:06.549Z,53.50
2018-12-07T17:00:36.361Z,53.30
2018-12-07T17:03:05.836Z,53.60
2018-12-07T17:05:35.606Z,53.90
2018-12-07T17:08:05.335Z,53.90
2018-12-07T17:10:34.960Z,54.10
2018-12-07T17:13:04.429Z,54.10
2018-12-07T17:15:33.733Z,53.90
2018-12-07T17:18:03.262Z,53.80
2018-12-07T17:20:32.724Z,53.70
2018-12-07T17:23:02.488Z,53.80
2018-12-07T17:25:31.744Z,53.80
2018-12-07T17:28:01.227Z,53.60
2018-12-07T17:30:30.626Z,53.60
2018-12-07T17:33:01.055Z,53.60
2018-12-07T17:35:30.473Z,53.30
2018-12-07T17:38:06.126Z,52.50
2018-12-07T17:40:35.814Z,53.00
2018-12-07T17:43:05.128Z,53.00
2018-12-07T17:45:34.480Z,53.20
2018-12-07T17:48:03.923Z,53.20
2018-12-07T17:50:33.470Z,53.30
2018-12-07T17:53:02.896Z,53.30
2018-12-07T17:55:32.150Z,53.40
2018-12-07T17:58:03.130Z,53.40
2018-12-07T18:00:32.559Z,53.40
2018-12-07T18:03:13.129Z,53.40
2018-12-07T18:05:52.746Z,53.40
2018-12-07T18:08:25.017Z,53.70
2018-12-07T18:10:55.030Z,53.50
2018-12-07T18:13:24.396Z,53.80
2018-12-07T18:15:53.680Z,54.40
2018-12-07T18:18:23.231Z,53.70
2018-12-07T18:20:52.712Z,54.00
2018-12-07T18:23:22.257Z,54.00
2018-12-07T18:25:51.603Z,53.90
2018-12-07T18:28:21.155Z,55.10
2018-12-07T18:30:50.535Z,57.80
2018-12-07T18:33:20.197Z,56.30
2018-12-07T18:35:49.554Z,55.90
2018-12-07T18:38:18.968Z,55.80
2018-12-07T18:40:48.204Z,55.70
2018-12-07T18:43:17.618Z,55.20
2018-12-07T18:45:46.964Z,55.10
2018-12-07T18:48:16.361Z,55.00
2018-12-07T18:50:45.636Z,55.10
2018-12-07T18:53:14.900Z,54.90
2018-12-07T18:55:44.309Z,54.90
2018-12-07T18:58:13.686Z,54.80
2018-12-07T19:00:43.142Z,54.80
2018-12-07T19:03:12.627Z,54.90
2018-12-07T19:05:41.969Z,54.70
2018-12-07T19:08:11.387Z,54.50
2018-12-07T19:10:40.784Z,54.60
2018-12-07T19:13:10.409Z,54.60
2018-12-07T19:15:39.742Z,54.40
2018-12-07T19:18:09.167Z,54.30
2018-12-07T19:20:38.480Z,54.20
2018-12-07T19:23:07.846Z,54.30
2018-12-07T19:25:37.494Z,54.20
2018-12-07T19:28:07.124Z,54.20
2018-12-07T19:30:57.622Z,54.30
2018-12-07T19:46:39.341Z,54.40
2018-12-07T19:49:09.045Z,54.50
2018-12-07T19:51:43.750Z,54.40
2018-12-07T19:54:22.812Z,54.40
2018-12-07T19:56:53.300Z,54.40
2018-12-07T19:59:22.834Z,54.40
2018-12-07T20:01:52.706Z,54.40
2018-12-07T20:04:22.211Z,54.00
2018-12-07T20:06:51.634Z,54.40
2018-12-07T20:09:21.016Z,54.30
2018-12-07T20:11:54.665Z,54.20
2018-12-07T20:28:04.080Z,54.30
2018-12-07T20:30:34.146Z,54.10
2018-12-07T20:33:03.464Z,54.10
2018-12-07T20:35:32.840Z,54.70
2018-12-07T20:38:02.589Z,54.00
2018-12-07T20:40:31.922Z,54.00
2018-12-07T20:43:01.204Z,53.90
2018-12-07T20:45:31.096Z,53.60
2018-12-07T20:48:00.660Z,54.30
2018-12-07T20:50:30.118Z,53.40
2018-12-07T20:52:59.536Z,53.30
2018-12-07T20:55:28.836Z,53.30
2018-12-07T20:57:58.153Z,53.10
2018-12-07T21:00:27.663Z,53.30
2018-12-07T21:02:57.706Z,53.30
2018-12-07T21:06:44.844Z,53.40
2018-12-07T21:09:25.621Z,53.40
2018-12-07T21:12:00.526Z,53.70
2018-12-07T21:14:35.646Z,53.80
2018-12-07T21:17:15.771Z,53.80
2018-12-07T21:19:50.295Z,53.90
2018-12-07T21:22:21.621Z,53.90
2018-12-07T21:24:51.972Z,53.80
2018-12-07T21:27:21.642Z,53.70
2018-12-07T21:30:04.033Z,53.80
2018-12-07T21:32:33.464Z,53.80
2018-12-07T21:35:08.331Z,54.30
2018-12-07T21:37:37.676Z,53.80
2018-12-07T21:40:12.876Z,53.80
2018-12-07T21:42:42.246Z,54.00
2018-12-07T21:45:11.568Z,53.70
2018-12-07T21:51:25.989Z,53.60
2018-12-07T21:53:55.287Z,53.50
2018-12-07T21:56:24.761Z,53.50
2018-12-07T21:58:54.359Z,53.30
2018-12-07T22:01:23.755Z,53.20
2018-12-07T22:03:53.192Z,53.20
2018-12-07T22:06:22.413Z,52.90
2018-12-07T22:08:51.750Z,52.80
2018-12-07T22:11:21.668Z,52.80
2018-12-07T22:13:51.021Z,52.70
2018-12-07T22:16:20.218Z,52.60
2018-12-07T22:18:49.490Z,52.70
2018-12-07T22:21:18.929Z,52.60
2018-12-07T22:23:48.881Z,52.50
2018-12-07T22:26:18.358Z,52.40
2018-12-07T22:28:47.835Z,52.40
2018-12-07T22:31:17.286Z,52.40
2018-12-07T22:33:46.786Z,52.30
2018-12-07T22:36:16.205Z,52.10
2018-12-07T22:38:45.758Z,52.40
2018-12-07T22:41:15.284Z,52.10
2018-12-07T22:43:45.044Z,52.20
2018-12-07T22:46:14.343Z,52.20
2018-12-07T22:48:43.658Z,52.30
2018-12-07T22:51:12.988Z,52.20
2018-12-07T22:53:42.183Z,52.20
2018-12-07T22:56:11.383Z,52.20
2018-12-07T22:58:40.581Z,52.10
2018-12-07T23:01:09.751Z,52.20
2018-12-07T23:03:38.922Z,52.30
2018-12-07T23:06:08.111Z,52.10
2018-12-07T23:08:37.473Z,52.20
2018-12-07T23:11:06.699Z,52.10
2018-12-07T23:13:35.870Z,52.00
2018-12-07T23:16:05.067Z,51.90
2018-12-07T23:18:34.340Z,52.00
2018-12-07T23:21:03.566Z,52.00
2018-12-07T23:23:32.770Z,52.00
2018-12-07T23:26:02.059Z,52.00
2018-12-07T23:28:31.367Z,52.00
2018-12-07T23:31:00.575Z,51.90
2018-12-07T23:33:29.730Z,51.90
2018-12-07T23:35:58.900Z,52.40
2018-12-07T23:38:28.260Z,51.70
2018-12-07T23:40:57.531Z,51.60
2018-12-07T23:43:26.750Z,51.70
2018-12-07T23:45:55.926Z,51.80
2018-12-07T23:48:25.155Z,51.80
2018-12-07T23:50:54.409Z,51.70
2018-12-07T23:53:23.621Z,51.40
2018-12-07T23:55:52.821Z,51.40
2018-12-07T23:58:22.150Z,51.40
